Amman, Jordan
Current Conditions -  °F | °C
As of 9:00 PM on Sunday 23 Nov 2014 (Local Time) from OJAM Reporting Station
Haze Haze  
Wind Chill: 52°   Ceiling: Unl
Heat Index: 52°   Visibility: 2.5mi
Dew Point: 45°   Wind: 9mph
Humidity: 76%   Direction: 250°WSW
Pressure: 30"   Gusts: NA
Location:  31.95°N, 35.93°E
Report Text: OJAM 231800Z 25008KT 4000 BR SCT030 11/07 Q1016 NOSIG
Loading
Personal Weather Stations






























Interactive Weather Map New forecast layout! Learn more

10-Day Weather Forecast

Advertisements
Track Severe Weather on mobile